sensor_id;sensor_type;location;lat;lon;timestamp;temperature;humidity
33574;DHT22;20085;50.832;4.392;2022-12-05T01:07:55;4.80;99.90
33574;DHT22;20085;50.832;4.392;2022-12-05T01:10:21;4.70;99.90
33574;DHT22;20085;50.832;4.392;2022-12-05T01:12:46;4.80;99.90
33574;DHT22;20085;50.832;4.392;2022-12-05T01:15:12;4.80;99.90
33574;DHT22;20085;50.832;4.392;2022-12-05T01:17:37;4.80;99.90
33574;DHT22;20085;50.832;4.392;2022-12-05T01:20:03;5.00;99.90
33574;DHT22;20085;50.832;4.392;2022-12-05T01:22:29;5.10;99.90
33574;DHT22;20085;50.832;4.392;2022-12-05T01:24:54;5.00;99.90
33574;DHT22;20085;50.832;4.392;2022-12-05T01:27:20;5.00;99.90
33574;DHT22;20085;50.832;4.392;2022-12-05T01:29:45;4.90;99.90
33574;DHT22;20085;50.832;4.392;2022-12-05T01:32:11;4.90;99.90
33574;DHT22;20085;50.832;4.392;2022-12-05T01:34:36;4.90;99.90
33574;DHT22;20085;50.832;4.392;2022-12-05T01:37:02;4.90;99.90
33574;DHT22;20085;50.832;4.392;2022-12-05T01:39:27;4.80;99.90
33574;DHT22;20085;50.832;4.392;2022-12-05T01:41:53;4.80;99.90
33574;DHT22;20085;50.832;4.392;2022-12-05T01:46:48;5.00;99.90
33574;DHT22;20085;50.832;4.392;2022-12-05T01:49:27;4.90;99.90
33574;DHT22;20085;50.832;4.392;2022-12-05T01:51:58;4.90;99.90
33574;DHT22;20085;50.832;4.392;2022-12-05T01:54:24;4.90;99.90
33574;DHT22;20085;50.832;4.392;2022-12-05T01:56:55;4.90;99.90
33574;DHT22;20085;50.832;4.392;2022-12-05T01:59:22;5.00;99.90
33574;DHT22;20085;50.832;4.392;2022-12-05T02:01:48;4.80;99.90
33574;DHT22;20085;50.832;4.392;2022-12-05T02:04:14;4.80;99.90
33574;DHT22;20085;50.832;4.392;2022-12-05T02:06:39;4.80;99.90
33574;DHT22;20085;50.832;4.392;2022-12-05T02:09:05;4.90;99.90
33574;DHT22;20085;50.832;4.392;2022-12-05T02:11:31;4.90;99.90
33574;DHT22;20085;50.832;4.392;2022-12-05T02:19:08;4.90;99.90
33574;DHT22;20085;50.832;4.392;2022-12-05T02:21:58;4.90;99.90
33574;DHT22;20085;50.832;4.392;2022-12-05T02:32:27;5.00;99.90
33574;DHT22;20085;50.832;4.392;2022-12-05T02:37:30;5.00;99.90
33574;DHT22;20085;50.832;4.392;2022-12-05T02:40:13;4.90;99.90
33574;DHT22;20085;50.832;4.392;2022-12-05T02:42:41;4.90;99.90
33574;DHT22;20085;50.832;4.392;2022-12-05T02:45:08;5.00;99.90
33574;DHT22;20085;50.832;4.392;2022-12-05T02:47:44;5.00;99.90
33574;DHT22;20085;50.832;4.392;2022-12-05T02:50:11;4.90;99.90
33574;DHT22;20085;50.832;4.392;2022-12-05T02:52:38;5.00;99.90
33574;DHT22;20085;50.832;4.392;2022-12-05T02:55:04;4.90;99.90
33574;DHT22;20085;50.832;4.392;2022-12-05T02:57:31;4.80;99.90
33574;DHT22;20085;50.832;4.392;2022-12-05T02:59:58;4.90;99.90
33574;DHT22;20085;50.832;4.392;2022-12-05T03:02:25;4.90;99.90
33574;DHT22;20085;50.832;4.392;2022-12-05T03:04:51;4.90;99.90
33574;DHT22;20085;50.832;4.392;2022-12-05T03:07:16;4.90;99.90
33574;DHT22;20085;50.832;4.392;2022-12-05T03:09:48;4.90;99.90
33574;DHT22;20085;50.832;4.392;2022-12-05T03:14:41;4.90;99.90
33574;DHT22;20085;50.832;4.392;2022-12-05T03:17:09;5.00;99.90
33574;DHT22;20085;50.832;4.392;2022-12-05T03:20:37;5.00;99.90
33574;DHT22;20085;50.832;4.392;2022-12-05T03:22:31;4.90;99.90
33574;DHT22;20085;50.832;4.392;2022-12-05T03:24:58;5.00;99.90
33574;DHT22;20085;50.832;4.392;2022-12-05T03:32:35;5.00;99.90
33574;DHT22;20085;50.832;4.392;2022-12-05T03:35:13;4.90;99.90
33574;DHT22;20085;50.832;4.392;2022-12-05T03:40:25;5.10;99.90
33574;DHT22;20085;50.832;4.392;2022-12-05T03:50:56;5.10;99.90
33574;DHT22;20085;50.832;4.392;2022-12-05T03:53:30;5.30;99.90
33574;DHT22;20085;50.832;4.392;2022-12-05T03:56:03;5.30;99.90
33574;DHT22;20085;50.832;4.392;2022-12-05T03:58:30;5.30;99.90
33574;DHT22;20085;50.832;4.392;2022-12-05T04:00:57;5.30;99.90
33574;DHT22;20085;50.832;4.392;2022-12-05T04:03:36;5.30;99.90
33574;DHT22;20085;50.832;4.392;2022-12-05T04:06:05;5.20;99.90
33574;DHT22;20085;50.832;4.392;2022-12-05T04:08:35;5.10;99.90
33574;DHT22;20085;50.832;4.392;2022-12-05T04:11:02;5.00;99.90
33574;DHT22;20085;50.832;4.392;2022-12-05T04:13:31;5.00;99.90
33574;DHT22;20085;50.832;4.392;2022-12-05T04:16:02;5.10;99.90
33574;DHT22;20085;50.832;4.392;2022-12-05T04:18:52;4.90;99.90
33574;DHT22;20085;50.832;4.392;2022-12-05T04:21:22;5.10;99.90
33574;DHT22;20085;50.832;4.392;2022-12-05T04:24:09;5.10;99.90
33574;DHT22;20085;50.832;4.392;2022-12-05T04:26:56;5.00;99.90
33574;DHT22;20085;50.832;4.392;2022-12-05T04:29:27;5.00;99.90
33574;DHT22;20085;50.832;4.392;2022-12-05T04:31:55;5.00;99.90
33574;DHT22;20085;50.832;4.392;2022-12-05T04:34:22;5.00;99.90
33574;DHT22;20085;50.832;4.392;2022-12-05T04:36:50;5.10;99.90
33574;DHT22;20085;50.832;4.392;2022-12-05T04:39:19;5.00;99.90
33574;DHT22;20085;50.832;4.392;2022-12-05T04:42:00;4.90;99.90
33574;DHT22;20085;50.832;4.392;2022-12-05T04:44:31;4.80;99.90
33574;DHT22;20085;50.832;4.392;2022-12-05T04:46:58;4.70;99.90
33574;DHT22;20085;50.832;4.392;2022-12-05T04:49:25;4.80;99.90
33574;DHT22;20085;50.832;4.392;2022-12-05T04:51:53;4.90;99.90
33574;DHT22;20085;50.832;4.392;2022-12-05T04:54:24;4.90;99.90
33574;DHT22;20085;50.832;4.392;2022-12-05T04:56:52;4.90;99.90
33574;DHT22;20085;50.832;4.392;2022-12-05T04:59:19;5.10;99.90
33574;DHT22;20085;50.832;4.392;2022-12-05T05:01:49;5.10;99.90
33574;DHT22;20085;50.832;4.392;2022-12-05T05:04:25;5.10;99.90
33574;DHT22;20085;50.832;4.392;2022-12-05T05:06:51;5.10;99.90
33574;DHT22;20085;50.832;4.392;2022-12-05T05:09:16;5.20;99.90
33574;DHT22;20085;50.832;4.392;2022-12-05T05:11:42;5.20;99.90
33574;DHT22;20085;50.832;4.392;2022-12-05T05:14:07;5.20;99.90
33574;DHT22;20085;50.832;4.392;2022-12-05T05:16:34;5.10;99.90
33574;DHT22;20085;50.832;4.392;2022-12-05T05:19:02;5.20;99.90
33574;DHT22;20085;50.832;4.392;2022-12-05T05:23:53;5.00;99.90
33574;DHT22;20085;50.832;4.392;2022-12-05T05:26:19;5.10;99.90
33574;DHT22;20085;50.832;4.392;2022-12-05T05:28:44;5.10;99.90
33574;DHT22;20085;50.832;4.392;2022-12-05T05:31:11;5.10;99.90
33574;DHT22;20085;50.832;4.392;2022-12-05T05:33:36;5.00;99.90
33574;DHT22;20085;50.832;4.392;2022-12-05T05:36:03;5.00;99.90
33574;DHT22;20085;50.832;4.392;2022-12-05T05:38:28;5.00;99.90
33574;DHT22;20085;50.832;4.392;2022-12-05T05:40:54;5.10;99.90
33574;DHT22;20085;50.832;4.392;2022-12-05T05:43:19;5.10;99.90
33574;DHT22;20085;50.832;4.392;2022-12-05T05:45:45;5.20;99.90
33574;DHT22;20085;50.832;4.392;2022-12-05T05:48:10;5.30;99.90
33574;DHT22;20085;50.832;4.392;2022-12-05T05:50:36;5.20;99.90
33574;DHT22;20085;50.832;4.392;2022-12-05T05:53:01;5.10;99.90
33574;DHT22;20085;50.832;4.392;2022-12-05T05:55:27;5.20;99.90
33574;DHT22;20085;50.832;4.392;2022-12-05T05:57:52;5.10;99.90
33574;DHT22;20085;50.832;4.392;2022-12-05T06:00:18;5.30;99.90
33574;DHT22;20085;50.832;4.392;2022-12-05T06:02:43;5.30;99.90
33574;DHT22;20085;50.832;4.392;2022-12-05T06:05:09;5.20;99.90
33574;DHT22;20085;50.832;4.392;2022-12-05T06:07:34;5.30;99.90
33574;DHT22;20085;50.832;4.392;2022-12-05T06:10:00;5.30;99.90
33574;DHT22;20085;50.832;4.392;2022-12-05T06:12:25;5.30;99.90
33574;DHT22;20085;50.832;4.392;2022-12-05T06:14:51;5.20;99.90
33574;DHT22;20085;50.832;4.392;2022-12-05T06:17:17;5.30;99.90
33574;DHT22;20085;50.832;4.392;2022-12-05T06:19:42;5.40;99.90
33574;DHT22;20085;50.832;4.392;2022-12-05T06:22:08;5.40;99.90
33574;DHT22;20085;50.832;4.392;2022-12-05T06:24:33;5.40;99.90
33574;DHT22;20085;50.832;4.392;2022-12-05T06:26:59;5.30;99.90
33574;DHT22;20085;50.832;4.392;2022-12-05T06:29:24;5.30;99.90
33574;DHT22;20085;50.832;4.392;2022-12-05T06:31:50;5.30;99.90
33574;DHT22;20085;50.832;4.392;2022-12-05T06:34:15;5.40;99.90
33574;DHT22;20085;50.832;4.392;2022-12-05T06:36:41;5.40;99.90
33574;DHT22;20085;50.832;4.392;2022-12-05T06:39:06;5.40;99.90
33574;DHT22;20085;50.832;4.392;2022-12-05T06:41:32;5.40;99.90
33574;DHT22;20085;50.832;4.392;2022-12-05T06:43:58;5.40;99.90
33574;DHT22;20085;50.832;4.392;2022-12-05T06:46:24;5.40;99.90
33574;DHT22;20085;50.832;4.392;2022-12-05T06:48:54;5.30;99.90
33574;DHT22;20085;50.832;4.392;2022-12-05T06:51:20;5.30;99.90
33574;DHT22;20085;50.832;4.392;2022-12-05T06:53:46;5.20;99.90
33574;DHT22;20085;50.832;4.392;2022-12-05T06:56:13;5.40;99.90
33574;DHT22;20085;50.832;4.392;2022-12-05T06:58:40;5.40;99.90
33574;DHT22;20085;50.832;4.392;2022-12-05T07:01:08;5.40;99.90
33574;DHT22;20085;50.832;4.392;2022-12-05T07:03:53;5.40;99.90
33574;DHT22;20085;50.832;4.392;2022-12-05T07:06:19;5.40;99.90
33574;DHT22;20085;50.832;4.392;2022-12-05T07:08:44;5.40;99.90
33574;DHT22;20085;50.832;4.392;2022-12-05T07:11:10;5.40;99.90
33574;DHT22;20085;50.832;4.392;2022-12-05T07:13:35;5.50;99.90
33574;DHT22;20085;50.832;4.392;2022-12-05T07:16:01;5.40;99.90
33574;DHT22;20085;50.832;4.392;2022-12-05T07:18:26;5.40;99.90
33574;DHT22;20085;50.832;4.392;2022-12-05T07:20:56;5.40;99.90
33574;DHT22;20085;50.832;4.392;2022-12-05T07:23:21;5.40;99.90
33574;DHT22;20085;50.832;4.392;2022-12-05T07:25:47;5.20;99.90
33574;DHT22;20085;50.832;4.392;2022-12-05T07:28:12;5.30;99.90
33574;DHT22;20085;50.832;4.392;2022-12-05T07:30:38;5.40;99.90
33574;DHT22;20085;50.832;4.392;2022-12-05T07:33:03;5.50;99.90
33574;DHT22;20085;50.832;4.392;2022-12-05T07:35:29;5.40;99.90
33574;DHT22;20085;50.832;4.392;2022-12-05T07:37:54;5.40;99.90
33574;DHT22;20085;50.832;4.392;2022-12-05T07:40:19;5.30;99.90
33574;DHT22;20085;50.832;4.392;2022-12-05T07:42:48;5.30;99.90
33574;DHT22;20085;50.832;4.392;2022-12-05T07:45:13;5.30;99.90
33574;DHT22;20085;50.832;4.392;2022-12-05T07:47:39;5.40;99.90
33574;DHT22;20085;50.832;4.392;2022-12-05T07:50:05;5.50;99.90
33574;DHT22;20085;50.832;4.392;2022-12-05T07:52:30;5.50;99.90
33574;DHT22;20085;50.832;4.392;2022-12-05T07:54:56;5.50;99.90
33574;DHT22;20085;50.832;4.392;2022-12-05T07:57:22;5.40;99.90
33574;DHT22;20085;50.832;4.392;2022-12-05T07:59:47;5.30;99.90
33574;DHT22;20085;50.832;4.392;2022-12-05T08:02:13;5.40;99.90
33574;DHT22;20085;50.832;4.392;2022-12-05T08:04:38;5.40;99.90
33574;DHT22;20085;50.832;4.392;2022-12-05T08:07:04;5.40;99.90
33574;DHT22;20085;50.832;4.392;2022-12-05T08:09:29;5.40;99.90
33574;DHT22;20085;50.832;4.392;2022-12-05T08:11:55;5.50;99.90
33574;DHT22;20085;50.832;4.392;2022-12-05T08:14:20;5.40;99.90
33574;DHT22;20085;50.832;4.392;2022-12-05T08:16:46;5.50;99.90
33574;DHT22;20085;50.832;4.392;2022-12-05T08:19:12;5.60;99.90
33574;DHT22;20085;50.832;4.392;2022-12-05T08:21:38;5.60;99.90
33574;DHT22;20085;50.832;4.392;2022-12-05T08:24:04;5.60;99.90
33574;DHT22;20085;50.832;4.392;2022-12-05T08:26:30;5.60;99.90
33574;DHT22;20085;50.832;4.392;2022-12-05T08:28:57;5.60;99.90
33574;DHT22;20085;50.832;4.392;2022-12-05T08:31:24;5.60;99.90
33574;DHT22;20085;50.832;4.392;2022-12-05T08:33:50;5.60;99.90
33574;DHT22;20085;50.832;4.392;2022-12-05T08:36:16;5.50;99.90
33574;DHT22;20085;50.832;4.392;2022-12-05T08:38:41;5.60;99.90
33574;DHT22;20085;50.832;4.392;2022-12-05T08:41:08;5.50;99.90
33574;DHT22;20085;50.832;4.392;2022-12-05T08:43:34;5.50;99.90
33574;DHT22;20085;50.832;4.392;2022-12-05T08:45:59;5.50;99.90
33574;DHT22;20085;50.832;4.392;2022-12-05T08:48:26;5.60;99.90
33574;DHT22;20085;50.832;4.392;2022-12-05T08:50:52;5.70;99.90
33574;DHT22;20085;50.832;4.392;2022-12-05T08:53:17;5.80;99.90
33574;DHT22;20085;50.832;4.392;2022-12-05T08:55:43;5.70;99.90
33574;DHT22;20085;50.832;4.392;2022-12-05T08:58:10;5.70;99.90
33574;DHT22;20085;50.832;4.392;2022-12-05T09:00:35;5.70;99.90
33574;DHT22;20085;50.832;4.392;2022-12-05T09:03:00;5.80;99.90
33574;DHT22;20085;50.832;4.392;2022-12-05T09:05:26;5.70;99.90
33574;DHT22;20085;50.832;4.392;2022-12-05T09:07:52;5.80;99.90
33574;DHT22;20085;50.832;4.392;2022-12-05T09:10:17;5.80;99.90
33574;DHT22;20085;50.832;4.392;2022-12-05T09:12:43;5.90;99.90
33574;DHT22;20085;50.832;4.392;2022-12-05T09:15:10;5.90;99.90
33574;DHT22;20085;50.832;4.392;2022-12-05T09:17:36;5.90;99.90
33574;DHT22;20085;50.832;4.392;2022-12-05T09:20:01;5.90;99.90
33574;DHT22;20085;50.832;4.392;2022-12-05T09:22:27;6.00;99.90
33574;DHT22;20085;50.832;4.392;2022-12-05T09:24:52;5.90;99.90
33574;DHT22;20085;50.832;4.392;2022-12-05T09:27:18;5.90;99.90
33574;DHT22;20085;50.832;4.392;2022-12-05T09:29:44;5.90;99.90
33574;DHT22;20085;50.832;4.392;2022-12-05T09:32:09;5.90;99.90
33574;DHT22;20085;50.832;4.392;2022-12-05T09:34:35;5.90;99.90
33574;DHT22;20085;50.832;4.392;2022-12-05T09:37:01;5.90;99.90
33574;DHT22;20085;50.832;4.392;2022-12-05T09:39:27;5.90;99.90
33574;DHT22;20085;50.832;4.392;2022-12-05T09:41:56;5.90;99.90
33574;DHT22;20085;50.832;4.392;2022-12-05T09:44:43;5.90;99.90
33574;DHT22;20085;50.832;4.392;2022-12-05T09:50:31;6.00;99.90
33574;DHT22;20085;50.832;4.392;2022-12-05T09:52:37;6.00;99.90
33574;DHT22;20085;50.832;4.392;2022-12-05T09:55:11;6.00;99.90
33574;DHT22;20085;50.832;4.392;2022-12-05T09:57:39;6.00;99.90
33574;DHT22;20085;50.832;4.392;2022-12-05T10:00:08;6.10;99.90
33574;DHT22;20085;50.832;4.392;2022-12-05T10:02:46;6.10;99.90
33574;DHT22;20085;50.832;4.392;2022-12-05T10:07:50;6.30;99.90
33574;DHT22;20085;50.832;4.392;2022-12-05T10:10:20;6.40;99.90
33574;DHT22;20085;50.832;4.392;2022-12-05T10:18:01;6.20;99.90
33574;DHT22;20085;50.832;4.392;2022-12-05T10:20:30;6.30;99.90
33574;DHT22;20085;50.832;4.392;2022-12-05T10:22:59;6.20;99.90
33574;DHT22;20085;50.832;4.392;2022-12-05T10:25:26;6.30;99.90
33574;DHT22;20085;50.832;4.392;2022-12-05T10:27:59;6.30;99.90
33574;DHT22;20085;50.832;4.392;2022-12-05T10:30:29;6.20;99.90
33574;DHT22;20085;50.832;4.392;2022-12-05T10:32:58;6.30;99.90
33574;DHT22;20085;50.832;4.392;2022-12-05T10:37:56;6.40;99.90
33574;DHT22;20085;50.832;4.392;2022-12-05T10:40:23;6.30;99.90
33574;DHT22;20085;50.832;4.392;2022-12-05T10:42:50;6.40;99.90
33574;DHT22;20085;50.832;4.392;2022-12-05T10:45:17;6.30;99.90
33574;DHT22;20085;50.832;4.392;2022-12-05T10:47:43;6.30;99.90
33574;DHT22;20085;50.832;4.392;2022-12-05T10:50:22;6.30;99.90
33574;DHT22;20085;50.832;4.392;2022-12-05T10:52:48;6.30;99.90
33574;DHT22;20085;50.832;4.392;2022-12-05T10:55:15;6.30;99.90
33574;DHT22;20085;50.832;4.392;2022-12-05T10:57:41;6.20;99.90
33574;DHT22;20085;50.832;4.392;2022-12-05T11:00:11;6.20;99.90
33574;DHT22;20085;50.832;4.392;2022-12-05T11:02:37;6.20;99.90
33574;DHT22;20085;50.832;4.392;2022-12-05T11:05:05;6.30;99.90
33574;DHT22;20085;50.832;4.392;2022-12-05T11:07:32;6.40;99.90
33574;DHT22;20085;50.832;4.392;2022-12-05T11:09:58;6.40;99.90
33574;DHT22;20085;50.832;4.392;2022-12-05T11:14:58;6.40;99.90
33574;DHT22;20085;50.832;4.392;2022-12-05T11:19:55;6.40;99.90
33574;DHT22;20085;50.832;4.392;2022-12-05T11:22:28;6.30;99.90
33574;DHT22;20085;50.832;4.392;2022-12-05T11:24:54;6.30;99.90
33574;DHT22;20085;50.832;4.392;2022-12-05T11:27:23;6.40;99.90
33574;DHT22;20085;50.832;4.392;2022-12-05T11:32:22;6.50;99.90
33574;DHT22;20085;50.832;4.392;2022-12-05T11:37:19;6.50;99.90
33574;DHT22;20085;50.832;4.392;2022-12-05T11:39:46;6.50;99.90
33574;DHT22;20085;50.832;4.392;2022-12-05T11:45:08;6.60;99.90
33574;DHT22;20085;50.832;4.392;2022-12-05T11:47:44;6.60;99.90
33574;DHT22;20085;50.832;4.392;2022-12-05T11:53:11;6.70;99.90
33574;DHT22;20085;50.832;4.392;2022-12-05T11:55:49;6.60;99.90
33574;DHT22;20085;50.832;4.392;2022-12-05T11:58:40;6.60;99.90
33574;DHT22;20085;50.832;4.392;2022-12-05T12:01:32;6.50;99.90
33574;DHT22;20085;50.832;4.392;2022-12-05T12:04:05;6.60;99.90
33574;DHT22;20085;50.832;4.392;2022-12-05T12:14:40;6.60;99.90
33574;DHT22;20085;50.832;4.392;2022-12-05T12:17:27;6.60;99.90
33574;DHT22;20085;50.832;4.392;2022-12-05T12:20:14;6.60;99.90
33574;DHT22;20085;50.832;4.392;2022-12-05T12:25:30;6.50;99.90
33574;DHT22;20085;50.832;4.392;2022-12-05T12:30:48;6.60;99.90
33574;DHT22;20085;50.832;4.392;2022-12-05T12:33:24;6.60;99.90
33574;DHT22;20085;50.832;4.392;2022-12-05T12:36:01;6.70;99.90
33574;DHT22;20085;50.832;4.392;2022-12-05T12:40:54;6.70;99.90
33574;DHT22;20085;50.832;4.392;2022-12-05T12:49:17;6.60;99.90
33574;DHT22;20085;50.832;4.392;2022-12-05T12:51:31;6.60;99.90
33574;DHT22;20085;50.832;4.392;2022-12-05T12:56:30;6.60;99.90
33574;DHT22;20085;50.832;4.392;2022-12-05T13:04:13;6.60;99.90
33574;DHT22;20085;50.832;4.392;2022-12-05T13:27:28;6.70;99.90
